sensor_id;sensor_type;location;lat;lon;timestamp;pressure;altitude;pressure_sealevel;temperature;humidity
30598;BME280;17365;48.878;8.334;2023-08-24T00:01:08;100121.38;;;22.34;79.17
30598;BME280;17365;48.878;8.334;2023-08-24T00:03:34;100114.38;;;22.33;79.54
30598;BME280;17365;48.878;8.334;2023-08-24T00:06:00;100110.25;;;21.88;81.06
30598;BME280;17365;48.878;8.334;2023-08-24T00:08:25;100114.03;;;22.01;80.32
30598;BME280;17365;48.878;8.334;2023-08-24T00:10:50;100114.72;;;22.25;79.33
30598;BME280;17365;48.878;8.334;2023-08-24T00:13:16;100101.75;;;22.00;80.45
30598;BME280;17365;48.878;8.334;2023-08-24T00:15:41;100094.94;;;21.95;80.32
30598;BME280;17365;48.878;8.334;2023-08-24T00:18:06;100088.81;;;21.75;81.79
30598;BME280;17365;48.878;8.334;2023-08-24T00:20:32;100089.19;;;21.87;81.51
30598;BME280;17365;48.878;8.334;2023-08-24T00:22:57;100093.50;;;22.08;79.94
30598;BME280;17365;48.878;8.334;2023-08-24T00:25:23;100089.78;;;21.73;82.00
30598;BME280;17365;48.878;8.334;2023-08-24T00:27:48;100083.22;;;21.82;81.61
30598;BME280;17365;48.878;8.334;2023-08-24T00:30:13;100086.00;;;21.78;81.75
30598;BME280;17365;48.878;8.334;2023-08-24T00:32:38;100094.38;;;21.88;81.15
30598;BME280;17365;48.878;8.334;2023-08-24T00:35:04;100087.28;;;21.70;81.99
30598;BME280;17365;48.878;8.334;2023-08-24T00:37:31;100080.22;;;21.70;81.57
30598;BME280;17365;48.878;8.334;2023-08-24T00:39:56;100083.31;;;21.80;80.90
30598;BME280;17365;48.878;8.334;2023-08-24T00:42:22;100079.22;;;21.73;81.38
30598;BME280;17365;48.878;8.334;2023-08-24T00:44:48;100075.69;;;21.93;79.92
30598;BME280;17365;48.878;8.334;2023-08-24T00:47:13;100072.16;;;21.73;81.12
30598;BME280;17365;48.878;8.334;2023-08-24T00:49:38;100077.03;;;21.83;80.90
30598;BME280;17365;48.878;8.334;2023-08-24T00:52:04;100066.38;;;21.65;81.85
30598;BME280;17365;48.878;8.334;2023-08-24T00:54:30;100062.28;;;21.58;82.87
30598;BME280;17365;48.878;8.334;2023-08-24T00:56:55;100058.91;;;21.75;81.19
30598;BME280;17365;48.878;8.334;2023-08-24T00:59:20;100060.19;;;21.26;84.14
30598;BME280;17365;48.878;8.334;2023-08-24T01:01:46;100064.75;;;21.42;83.59
30598;BME280;17365;48.878;8.334;2023-08-24T01:04:12;100068.25;;;21.62;82.79
30598;BME280;17365;48.878;8.334;2023-08-24T01:06:37;100061.81;;;21.69;82.20
30598;BME280;17365;48.878;8.334;2023-08-24T01:09:02;100077.13;;;21.61;82.60
30598;BME280;17365;48.878;8.334;2023-08-24T01:14:03;100084.78;;;21.67;81.84
30598;BME280;17365;48.878;8.334;2023-08-24T01:16:30;100085.44;;;21.51;83.15
30598;BME280;17365;48.878;8.334;2023-08-24T01:18:56;100090.47;;;21.58;82.29
30598;BME280;17365;48.878;8.334;2023-08-24T01:21:24;100100.78;;;21.21;84.42
30598;BME280;17365;48.878;8.334;2023-08-24T01:24:03;100108.56;;;21.25;84.02
30598;BME280;17365;48.878;8.334;2023-08-24T01:26:29;100112.66;;;21.54;82.13
30598;BME280;17365;48.878;8.334;2023-08-24T01:28:54;100111.97;;;21.28;83.22
30598;BME280;17365;48.878;8.334;2023-08-24T01:31:20;100112.63;;;21.33;82.80
30598;BME280;17365;48.878;8.334;2023-08-24T01:33:45;100108.16;;;21.35;83.05
30598;BME280;17365;48.878;8.334;2023-08-24T01:36:11;100112.97;;;21.46;82.80
30598;BME280;17365;48.878;8.334;2023-08-24T01:38:37;100113.28;;;21.38;83.04
30598;BME280;17365;48.878;8.334;2023-08-24T01:41:14;100117.31;;;21.27;83.57
30598;BME280;17365;48.878;8.334;2023-08-24T01:43:43;100112.94;;;21.26;83.50
30598;BME280;17365;48.878;8.334;2023-08-24T01:46:11;100104.41;;;21.19;83.37
30598;BME280;17365;48.878;8.334;2023-08-24T01:48:37;100096.53;;;21.17;83.09
30598;BME280;17365;48.878;8.334;2023-08-24T01:51:03;100088.69;;;21.16;83.14
30598;BME280;17365;48.878;8.334;2023-08-24T01:53:30;100085.41;;;21.11;83.63
30598;BME280;17365;48.878;8.334;2023-08-24T01:55:55;100092.69;;;21.26;83.78
30598;BME280;17365;48.878;8.334;2023-08-24T01:58:20;100090.09;;;21.25;84.16
30598;BME280;17365;48.878;8.334;2023-08-24T02:00:46;100093.88;;;21.39;83.10
30598;BME280;17365;48.878;8.334;2023-08-24T02:03:11;100095.25;;;20.85;86.98
30598;BME280;17365;48.878;8.334;2023-08-24T02:05:36;100098.84;;;20.83;87.15
30598;BME280;17365;48.878;8.334;2023-08-24T02:08:02;100103.25;;;21.04;85.95
30598;BME280;17365;48.878;8.334;2023-08-24T02:10:27;100093.19;;;21.14;84.65
30598;BME280;17365;48.878;8.334;2023-08-24T02:12:52;100098.13;;;21.01;84.86
30598;BME280;17365;48.878;8.334;2023-08-24T02:15:17;100091.47;;;21.13;84.66
30598;BME280;17365;48.878;8.334;2023-08-24T02:17:43;100086.50;;;21.27;83.79
30598;BME280;17365;48.878;8.334;2023-08-24T02:20:08;100076.97;;;21.23;83.82
30598;BME280;17365;48.878;8.334;2023-08-24T02:22:34;100070.81;;;21.44;82.88
30598;BME280;17365;48.878;8.334;2023-08-24T02:24:59;100085.25;;;21.36;83.30
30598;BME280;17365;48.878;8.334;2023-08-24T02:27:26;100075.09;;;21.47;82.59
30598;BME280;17365;48.878;8.334;2023-08-24T02:29:51;100082.53;;;21.58;82.26
30598;BME280;17365;48.878;8.334;2023-08-24T02:32:16;100086.88;;;21.38;83.17
30598;BME280;17365;48.878;8.334;2023-08-24T02:34:41;100097.28;;;20.79;86.38
30598;BME280;17365;48.878;8.334;2023-08-24T02:37:07;100106.94;;;21.00;86.17
30598;BME280;17365;48.878;8.334;2023-08-24T02:39:32;100098.25;;;20.98;86.78
30598;BME280;17365;48.878;8.334;2023-08-24T02:41:57;100092.63;;;20.85;87.12
30598;BME280;17365;48.878;8.334;2023-08-24T02:44:22;100071.59;;;21.04;85.94
30598;BME280;17365;48.878;8.334;2023-08-24T02:46:48;100054.38;;;20.75;87.62
30598;BME280;17365;48.878;8.334;2023-08-24T02:49:13;100050.53;;;20.82;87.46
30598;BME280;17365;48.878;8.334;2023-08-24T02:51:38;100045.25;;;20.82;87.37
30598;BME280;17365;48.878;8.334;2023-08-24T02:54:04;100039.94;;;21.04;86.13
30598;BME280;17365;48.878;8.334;2023-08-24T02:56:29;100046.09;;;21.25;84.96
30598;BME280;17365;48.878;8.334;2023-08-24T02:58:54;100034.25;;;21.35;84.43
30598;BME280;17365;48.878;8.334;2023-08-24T03:01:20;100038.63;;;21.14;86.09
30598;BME280;17365;48.878;8.334;2023-08-24T03:03:45;100033.72;;;21.27;84.98
30598;BME280;17365;48.878;8.334;2023-08-24T03:06:10;100021.28;;;20.88;87.01
30598;BME280;17365;48.878;8.334;2023-08-24T03:08:35;100020.78;;;21.01;86.63
30598;BME280;17365;48.878;8.334;2023-08-24T03:11:01;100005.59;;;21.06;86.43
30598;BME280;17365;48.878;8.334;2023-08-24T03:13:28;100005.72;;;21.03;86.13
30598;BME280;17365;48.878;8.334;2023-08-24T03:15:53;100003.69;;;21.09;85.54
30598;BME280;17365;48.878;8.334;2023-08-24T03:18:19;99997.97;;;21.00;86.86
30598;BME280;17365;48.878;8.334;2023-08-24T03:20:44;100001.25;;;21.25;85.29
30598;BME280;17365;48.878;8.334;2023-08-24T03:23:10;99999.75;;;21.19;85.60
30598;BME280;17365;48.878;8.334;2023-08-24T03:25:35;99982.91;;;21.22;85.50
30598;BME280;17365;48.878;8.334;2023-08-24T03:28:01;99981.72;;;21.29;85.29
30598;BME280;17365;48.878;8.334;2023-08-24T03:30:27;99976.59;;;21.26;84.92
30598;BME280;17365;48.878;8.334;2023-08-24T03:32:52;99983.75;;;20.40;91.06
30598;BME280;17365;48.878;8.334;2023-08-24T03:35:17;99985.28;;;20.67;89.57
30598;BME280;17365;48.878;8.334;2023-08-24T03:37:42;99983.84;;;20.80;88.66
30598;BME280;17365;48.878;8.334;2023-08-24T03:40:08;99982.50;;;20.70;89.01
30598;BME280;17365;48.878;8.334;2023-08-24T03:42:33;99971.09;;;20.70;88.73
30598;BME280;17365;48.878;8.334;2023-08-24T03:45:01;99970.72;;;20.79;88.08
30598;BME280;17365;48.878;8.334;2023-08-24T03:47:26;99963.22;;;20.90;87.18
30598;BME280;17365;48.878;8.334;2023-08-24T03:49:52;99948.31;;;20.89;86.88
30598;BME280;17365;48.878;8.334;2023-08-24T03:52:17;99948.84;;;20.77;87.60
30598;BME280;17365;48.878;8.334;2023-08-24T03:54:42;99949.75;;;20.76;87.65
30598;BME280;17365;48.878;8.334;2023-08-24T03:57:07;99942.78;;;20.75;87.82
30598;BME280;17365;48.878;8.334;2023-08-24T03:59:32;99940.16;;;20.75;86.86
30598;BME280;17365;48.878;8.334;2023-08-24T04:01:58;99941.97;;;20.52;87.64
30598;BME280;17365;48.878;8.334;2023-08-24T04:04:26;99935.50;;;20.59;86.46
30598;BME280;17365;48.878;8.334;2023-08-24T04:06:52;99941.06;;;20.53;87.67
30598;BME280;17365;48.878;8.334;2023-08-24T04:09:17;99939.34;;;20.52;87.61
30598;BME280;17365;48.878;8.334;2023-08-24T04:11:42;99946.00;;;20.39;89.40
30598;BME280;17365;48.878;8.334;2023-08-24T04:14:08;99947.97;;;20.56;88.11
30598;BME280;17365;48.878;8.334;2023-08-24T04:16:33;99945.00;;;20.42;88.99
30598;BME280;17365;48.878;8.334;2023-08-24T04:18:58;99946.31;;;20.53;88.48
30598;BME280;17365;48.878;8.334;2023-08-24T04:21:23;99943.16;;;20.66;88.10
30598;BME280;17365;48.878;8.334;2023-08-24T04:23:48;99947.97;;;20.56;88.90
30598;BME280;17365;48.878;8.334;2023-08-24T04:26:14;99956.47;;;20.62;88.79
30598;BME280;17365;48.878;8.334;2023-08-24T04:28:39;99953.00;;;20.40;90.18
30598;BME280;17365;48.878;8.334;2023-08-24T04:31:04;99945.81;;;20.66;88.62
30598;BME280;17365;48.878;8.334;2023-08-24T04:33:29;99952.63;;;20.49;88.71
30598;BME280;17365;48.878;8.334;2023-08-24T04:35:54;99947.66;;;20.63;87.72
30598;BME280;17365;48.878;8.334;2023-08-24T04:38:20;99949.09;;;20.50;88.33
30598;BME280;17365;48.878;8.334;2023-08-24T04:40:46;99947.34;;;20.49;88.15
30598;BME280;17365;48.878;8.334;2023-08-24T04:43:12;99940.13;;;20.32;88.73
30598;BME280;17365;48.878;8.334;2023-08-24T04:45:37;99934.22;;;20.26;89.40
30598;BME280;17365;48.878;8.334;2023-08-24T04:48:02;99936.81;;;20.27;89.36
30598;BME280;17365;48.878;8.334;2023-08-24T04:50:28;99935.94;;;20.49;88.29
30598;BME280;17365;48.878;8.334;2023-08-24T04:52:53;99921.69;;;20.54;87.87
30598;BME280;17365;48.878;8.334;2023-08-24T04:55:18;99914.63;;;20.55;87.69
30598;BME280;17365;48.878;8.334;2023-08-24T04:57:43;99909.97;;;20.40;88.50
30598;BME280;17365;48.878;8.334;2023-08-24T05:00:08;99904.63;;;20.41;88.87
30598;BME280;17365;48.878;8.334;2023-08-24T05:02:36;99898.44;;;20.64;87.06
30598;BME280;17365;48.878;8.334;2023-08-24T05:05:01;99899.59;;;20.77;86.90
30598;BME280;17365;48.878;8.334;2023-08-24T05:07:27;99894.53;;;20.73;87.46
30598;BME280;17365;48.878;8.334;2023-08-24T05:09:53;99891.28;;;21.07;86.54
30598;BME280;17365;48.878;8.334;2023-08-24T05:12:18;99883.22;;;21.30;84.37
30598;BME280;17365;48.878;8.334;2023-08-24T05:14:43;99882.19;;;21.33;84.17
30598;BME280;17365;48.878;8.334;2023-08-24T05:17:08;99878.47;;;21.37;85.05
30598;BME280;17365;48.878;8.334;2023-08-24T05:19:34;99882.06;;;20.97;86.96
30598;BME280;17365;48.878;8.334;2023-08-24T05:21:59;99889.47;;;21.46;84.53
30598;BME280;17365;48.878;8.334;2023-08-24T05:24:24;99899.22;;;21.05;87.60
30598;BME280;17365;48.878;8.334;2023-08-24T05:26:49;99901.44;;;21.35;85.80
30598;BME280;17365;48.878;8.334;2023-08-24T05:29:14;99906.03;;;21.69;83.14
30598;BME280;17365;48.878;8.334;2023-08-24T05:31:39;99915.16;;;21.80;82.20
30598;BME280;17365;48.878;8.334;2023-08-24T05:34:05;99919.28;;;21.48;84.78
30598;BME280;17365;48.878;8.334;2023-08-24T05:36:30;99921.50;;;21.58;83.94
30598;BME280;17365;48.878;8.334;2023-08-24T05:38:55;99915.78;;;21.48;84.08
30598;BME280;17365;48.878;8.334;2023-08-24T05:41:21;99927.00;;;21.53;83.83
30598;BME280;17365;48.878;8.334;2023-08-24T05:43:46;99938.19;;;21.39;84.17
30598;BME280;17365;48.878;8.334;2023-08-24T05:46:11;99945.31;;;21.17;85.22
30598;BME280;17365;48.878;8.334;2023-08-24T05:48:37;99954.16;;;21.16;86.98
30598;BME280;17365;48.878;8.334;2023-08-24T05:51:02;99978.25;;;21.29;86.43
30598;BME280;17365;48.878;8.334;2023-08-24T05:53:27;99994.72;;;21.13;87.48
30598;BME280;17365;48.878;8.334;2023-08-24T05:55:56;100005.59;;;21.46;85.71
30598;BME280;17365;48.878;8.334;2023-08-24T05:58:21;100019.19;;;21.58;85.14
30598;BME280;17365;48.878;8.334;2023-08-24T06:00:47;100036.56;;;21.43;86.41
30598;BME280;17365;48.878;8.334;2023-08-24T06:03:13;100056.28;;;21.55;86.46
30598;BME280;17365;48.878;8.334;2023-08-24T06:05:38;100061.59;;;21.73;85.03
30598;BME280;17365;48.878;8.334;2023-08-24T06:08:04;100062.59;;;21.50;85.84
30598;BME280;17365;48.878;8.334;2023-08-24T06:10:29;100053.25;;;21.64;86.27
30598;BME280;17365;48.878;8.334;2023-08-24T06:12:55;100053.72;;;21.72;86.35
30598;BME280;17365;48.878;8.334;2023-08-24T06:15:21;100043.16;;;21.53;88.54
30598;BME280;17365;48.878;8.334;2023-08-24T06:17:49;100024.06;;;21.67;87.95
30598;BME280;17365;48.878;8.334;2023-08-24T06:20:14;100013.56;;;21.65;87.18
30598;BME280;17365;48.878;8.334;2023-08-24T06:22:40;100015.22;;;21.87;84.40
30598;BME280;17365;48.878;8.334;2023-08-24T06:25:05;100023.91;;;22.09;83.94
30598;BME280;17365;48.878;8.334;2023-08-24T06:27:33;100034.44;;;22.28;82.24
30598;BME280;17365;48.878;8.334;2023-08-24T06:29:58;100024.84;;;22.44;80.26
30598;BME280;17365;48.878;8.334;2023-08-24T06:32:24;100021.97;;;22.13;80.86
30598;BME280;17365;48.878;8.334;2023-08-24T06:34:49;100016.13;;;22.42;80.67
30598;BME280;17365;48.878;8.334;2023-08-24T06:37:14;100024.28;;;22.19;81.18
30598;BME280;17365;48.878;8.334;2023-08-24T06:39:39;100030.59;;;21.97;83.04
30598;BME280;17365;48.878;8.334;2023-08-24T06:42:04;100029.94;;;22.30;81.66
30598;BME280;17365;48.878;8.334;2023-08-24T06:44:30;100036.47;;;22.59;79.03
30598;BME280;17365;48.878;8.334;2023-08-24T06:46:55;100035.03;;;22.52;79.37
30598;BME280;17365;48.878;8.334;2023-08-24T06:49:21;100026.50;;;22.47;78.49
30598;BME280;17365;48.878;8.334;2023-08-24T06:51:46;100025.88;;;22.23;79.35
30598;BME280;17365;48.878;8.334;2023-08-24T06:54:11;100013.22;;;22.29;78.63
30598;BME280;17365;48.878;8.334;2023-08-24T06:56:36;100023.59;;;22.51;78.24
30598;BME280;17365;48.878;8.334;2023-08-24T06:59:01;100007.47;;;22.57;77.94
30598;BME280;17365;48.878;8.334;2023-08-24T07:01:27;100007.69;;;22.89;77.03
30598;BME280;17365;48.878;8.334;2023-08-24T07:03:52;100003.84;;;22.94;76.01
30598;BME280;17365;48.878;8.334;2023-08-24T07:06:17;100001.47;;;22.71;76.39
30598;BME280;17365;48.878;8.334;2023-08-24T07:08:43;100018.81;;;22.59;77.89
30598;BME280;17365;48.878;8.334;2023-08-24T07:11:08;100006.03;;;22.86;77.23
30598;BME280;17365;48.878;8.334;2023-08-24T07:13:33;99993.44;;;22.91;76.13
30598;BME280;17365;48.878;8.334;2023-08-24T07:16:00;99991.63;;;23.27;75.67
30598;BME280;17365;48.878;8.334;2023-08-24T07:18:28;99990.28;;;23.35;75.21
30598;BME280;17365;48.878;8.334;2023-08-24T07:20:53;99992.72;;;23.22;75.16
30598;BME280;17365;48.878;8.334;2023-08-24T07:23:19;99986.88;;;23.16;76.20
30598;BME280;17365;48.878;8.334;2023-08-24T07:25:44;99989.81;;;23.27;75.86
30598;BME280;17365;48.878;8.334;2023-08-24T07:28:09;99984.72;;;23.40;74.45
30598;BME280;17365;48.878;8.334;2023-08-24T07:30:35;99987.03;;;23.13;75.72
30598;BME280;17365;48.878;8.334;2023-08-24T07:33:01;99996.63;;;23.48;74.45
30598;BME280;17365;48.878;8.334;2023-08-24T07:35:26;99995.44;;;23.71;73.76
30598;BME280;17365;48.878;8.334;2023-08-24T07:37:51;99997.69;;;23.29;74.66
30598;BME280;17365;48.878;8.334;2023-08-24T07:40:17;99997.63;;;23.63;74.28
30598;BME280;17365;48.878;8.334;2023-08-24T07:42:43;100002.16;;;23.44;74.47
30598;BME280;17365;48.878;8.334;2023-08-24T07:45:09;100004.84;;;23.93;72.05
30598;BME280;17365;48.878;8.334;2023-08-24T07:47:34;100004.78;;;23.94;70.85
30598;BME280;17365;48.878;8.334;2023-08-24T07:49:59;99998.44;;;24.28;70.10
30598;BME280;17365;48.878;8.334;2023-08-24T07:52:26;99993.13;;;24.28;70.26
30598;BME280;17365;48.878;8.334;2023-08-24T07:54:53;100005.44;;;24.61;69.09
30598;BME280;17365;48.878;8.334;2023-08-24T07:57:19;100000.00;;;24.48;68.52
30598;BME280;17365;48.878;8.334;2023-08-24T07:59:45;100003.59;;;24.77;68.70
30598;BME280;17365;48.878;8.334;2023-08-24T08:02:10;100002.50;;;24.65;68.46
30598;BME280;17365;48.878;8.334;2023-08-24T08:04:35;100006.03;;;24.96;68.00
30598;BME280;17365;48.878;8.334;2023-08-24T08:07:00;100012.63;;;25.05;67.66
30598;BME280;17365;48.878;8.334;2023-08-24T08:09:26;100013.13;;;24.95;67.65
30598;BME280;17365;48.878;8.334;2023-08-24T08:11:51;100011.75;;;24.74;67.41
30598;BME280;17365;48.878;8.334;2023-08-24T08:14:16;100003.13;;;24.55;68.25
30598;BME280;17365;48.878;8.334;2023-08-24T08:16:42;99998.81;;;24.98;66.94
30598;BME280;17365;48.878;8.334;2023-08-24T08:19:07;99997.41;;;24.62;68.18
30598;BME280;17365;48.878;8.334;2023-08-24T08:21:32;99997.31;;;24.64;67.56
30598;BME280;17365;48.878;8.334;2023-08-24T08:23:57;99996.41;;;25.09;66.20
30598;BME280;17365;48.878;8.334;2023-08-24T08:26:22;99994.34;;;25.14;66.06
30598;BME280;17365;48.878;8.334;2023-08-24T08:28:48;99987.91;;;25.33;66.13
30598;BME280;17365;48.878;8.334;2023-08-24T08:31:13;99990.75;;;25.30;65.88
30598;BME280;17365;48.878;8.334;2023-08-24T08:33:38;99986.25;;;25.02;66.03
30598;BME280;17365;48.878;8.334;2023-08-24T08:36:03;99977.50;;;25.30;65.78
30598;BME280;17365;48.878;8.334;2023-08-24T08:38:29;99978.53;;;25.41;65.00
30598;BME280;17365;48.878;8.334;2023-08-24T08:40:55;99969.72;;;25.69;64.51
30598;BME280;17365;48.878;8.334;2023-08-24T08:43:21;99964.84;;;25.90;64.31
30598;BME280;17365;48.878;8.334;2023-08-24T08:45:48;99961.06;;;25.66;63.59
30598;BME280;17365;48.878;8.334;2023-08-24T08:48:14;99954.34;;;25.74;63.49
30598;BME280;17365;48.878;8.334;2023-08-24T08:50:39;99956.13;;;25.88;63.33
30598;BME280;17365;48.878;8.334;2023-08-24T08:53:04;99934.28;;;25.97;62.81
30598;BME280;17365;48.878;8.334;2023-08-24T08:55:30;99936.28;;;25.94;63.15
30598;BME280;17365;48.878;8.334;2023-08-24T08:57:56;99935.00;;;26.26;61.95
30598;BME280;17365;48.878;8.334;2023-08-24T09:00:24;99922.34;;;26.17;62.32
30598;BME280;17365;48.878;8.334;2023-08-24T09:02:49;99924.38;;;26.40;60.94
30598;BME280;17365;48.878;8.334;2023-08-24T09:05:16;99916.41;;;26.53;60.84
30598;BME280;17365;48.878;8.334;2023-08-24T09:07:42;99915.44;;;26.42;60.95
30598;BME280;17365;48.878;8.334;2023-08-24T09:10:07;99920.56;;;26.57;60.05
30598;BME280;17365;48.878;8.334;2023-08-24T09:12:33;99915.91;;;26.74;60.58
30598;BME280;17365;48.878;8.334;2023-08-24T09:14:59;99925.59;;;26.62;61.04
30598;BME280;17365;48.878;8.334;2023-08-24T09:17:24;99896.09;;;26.78;60.34
30598;BME280;17365;48.878;8.334;2023-08-24T09:19:55;99883.03;;;27.13;59.67
30598;BME280;17365;48.878;8.334;2023-08-24T09:22:22;99886.44;;;27.15;59.25
30598;BME280;17365;48.878;8.334;2023-08-24T09:24:48;99871.00;;;27.20;59.80
30598;BME280;17365;48.878;8.334;2023-08-24T09:27:18;99877.19;;;27.20;59.90
30598;BME280;17365;48.878;8.334;2023-08-24T09:29:50;99876.72;;;27.01;59.52
30598;BME280;17365;48.878;8.334;2023-08-24T09:32:37;99861.97;;;27.10;60.49
30598;BME280;17365;48.878;8.334;2023-08-24T09:35:07;99847.69;;;27.47;60.26
30598;BME280;17365;48.878;8.334;2023-08-24T09:37:36;99842.00;;;27.77;59.54
30598;BME280;17365;48.878;8.334;2023-08-24T09:40:02;99820.63;;;27.53;60.09
30598;BME280;17365;48.878;8.334;2023-08-24T09:42:36;99825.41;;;27.85;60.12
30598;BME280;17365;48.878;8.334;2023-08-24T09:45:02;99828.53;;;28.38;58.73
30598;BME280;17365;48.878;8.334;2023-08-24T09:47:29;99826.19;;;28.22;58.59
30598;BME280;17365;48.878;8.334;2023-08-24T09:49:55;99822.84;;;28.42;57.73
30598;BME280;17365;48.878;8.334;2023-08-24T09:52:20;99810.53;;;28.75;57.10
30598;BME280;17365;48.878;8.334;2023-08-24T09:54:46;99808.78;;;28.40;57.10
30598;BME280;17365;48.878;8.334;2023-08-24T09:57:12;99800.19;;;28.59;57.43
30598;BME280;17365;48.878;8.334;2023-08-24T09:59:38;99798.31;;;28.95;56.64
30598;BME280;17365;48.878;8.334;2023-08-24T10:02:04;99797.44;;;29.17;55.41
30598;BME280;17365;48.878;8.334;2023-08-24T10:04:36;99788.63;;;29.60;54.70
30598;BME280;17365;48.878;8.334;2023-08-24T10:07:06;99783.53;;;29.68;53.62
30598;BME280;17365;48.878;8.334;2023-08-24T10:09:35;99784.00;;;29.62;53.17
30598;BME280;17365;48.878;8.334;2023-08-24T10:12:02;99782.78;;;29.66;52.92
30598;BME280;17365;48.878;8.334;2023-08-24T10:14:31;99776.03;;;29.50;53.67
30598;BME280;17365;48.878;8.334;2023-08-24T10:16:57;99776.88;;;29.51;53.83
30598;BME280;17365;48.878;8.334;2023-08-24T10:19:23;99768.41;;;29.67;53.98
30598;BME280;17365;48.878;8.334;2023-08-24T10:21:49;99764.34;;;29.83;52.93
30598;BME280;17365;48.878;8.334;2023-08-24T10:24:18;99751.94;;;29.62;54.29
30598;BME280;17365;48.878;8.334;2023-08-24T10:26:46;99759.47;;;29.89;52.81
30598;BME280;17365;48.878;8.334;2023-08-24T10:29:11;99759.13;;;29.82;52.75
30598;BME280;17365;48.878;8.334;2023-08-24T10:31:36;99736.41;;;29.76;52.87
30598;BME280;17365;48.878;8.334;2023-08-24T10:34:04;99728.75;;;29.83;52.69
30598;BME280;17365;48.878;8.334;2023-08-24T10:36:30;99730.38;;;29.95;52.41
30598;BME280;17365;48.878;8.334;2023-08-24T10:38:56;99728.94;;;29.91;52.89
30598;BME280;17365;48.878;8.334;2023-08-24T10:41:25;99717.34;;;30.23;51.67
30598;BME280;17365;48.878;8.334;2023-08-24T10:43:51;99718.16;;;30.13;52.26
30598;BME280;17365;48.878;8.334;2023-08-24T10:46:16;99720.34;;;30.08;52.09
30598;BME280;17365;48.878;8.334;2023-08-24T10:53:38;99714.97;;;30.81;51.34
30598;BME280;17365;48.878;8.334;2023-08-24T10:56:14;99713.97;;;30.72;51.55
30598;BME280;17365;48.878;8.334;2023-08-24T10:58:40;99718.06;;;30.55;50.83
30598;BME280;17365;48.878;8.334;2023-08-24T11:01:05;99714.56;;;30.85;50.21
30598;BME280;17365;48.878;8.334;2023-08-24T11:03:31;99715.53;;;30.54;50.20
30598;BME280;17365;48.878;8.334;2023-08-24T11:05:57;99714.16;;;30.99;49.75
30598;BME280;17365;48.878;8.334;2023-08-24T11:08:22;99703.28;;;30.82;49.73
30598;BME280;17365;48.878;8.334;2023-08-24T11:11:17;99689.25;;;31.18;49.39
30598;BME280;17365;48.878;8.334;2023-08-24T11:13:56;99684.28;;;31.04;49.22
30598;BME280;17365;48.878;8.334;2023-08-24T11:16:44;99679.69;;;31.45;49.04
30598;BME280;17365;48.878;8.334;2023-08-24T11:19:12;99672.50;;;31.45;48.70
30598;BME280;17365;48.878;8.334;2023-08-24T11:21:38;99684.63;;;31.20;48.92
30598;BME280;17365;48.878;8.334;2023-08-24T11:24:04;99679.97;;;31.22;48.33
30598;BME280;17365;48.878;8.334;2023-08-24T11:26:29;99687.47;;;31.28;48.83
30598;BME280;17365;48.878;8.334;2023-08-24T11:28:55;99685.19;;;31.24;49.09
30598;BME280;17365;48.878;8.334;2023-08-24T11:31:22;99686.03;;;31.73;48.82
30598;BME280;17365;48.878;8.334;2023-08-24T11:33:48;99691.09;;;31.18;48.35
30598;BME280;17365;48.878;8.334;2023-08-24T11:36:13;99691.53;;;31.33;48.48
30598;BME280;17365;48.878;8.334;2023-08-24T11:38:41;99684.34;;;31.52;47.73
30598;BME280;17365;48.878;8.334;2023-08-24T11:41:10;99673.28;;;32.04;47.64
30598;BME280;17365;48.878;8.334;2023-08-24T11:43:36;99668.91;;;32.50;46.38
30598;BME280;17365;48.878;8.334;2023-08-24T11:46:01;99664.34;;;32.23;45.61
30598;BME280;17365;48.878;8.334;2023-08-24T11:48:26;99667.88;;;32.33;45.91
30598;BME280;17365;48.878;8.334;2023-08-24T11:50:54;99663.69;;;32.11;46.22
30598;BME280;17365;48.878;8.334;2023-08-24T11:53:19;99662.03;;;31.91;47.41
30598;BME280;17365;48.878;8.334;2023-08-24T11:55:45;99656.16;;;32.14;46.13
30598;BME280;17365;48.878;8.334;2023-08-24T11:58:16;99655.19;;;32.80;45.54
30598;BME280;17365;48.878;8.334;2023-08-24T12:00:42;99650.66;;;33.26;44.16
30598;BME280;17365;48.878;8.334;2023-08-24T12:03:07;99643.81;;;33.67;43.32
30598;BME280;17365;48.878;8.334;2023-08-24T12:05:32;99636.94;;;32.84;44.97
30598;BME280;17365;48.878;8.334;2023-08-24T12:07:58;99634.44;;;32.72;45.35
30598;BME280;17365;48.878;8.334;2023-08-24T12:10:23;99632.25;;;33.31;44.50
30598;BME280;17365;48.878;8.334;2023-08-24T12:12:48;99627.34;;;33.44;44.59
30598;BME280;17365;48.878;8.334;2023-08-24T12:15:20;99627.75;;;34.01;43.35
30598;BME280;17365;48.878;8.334;2023-08-24T12:17:46;99625.31;;;33.46;45.38
30598;BME280;17365;48.878;8.334;2023-08-24T12:20:19;99623.31;;;33.13;44.60
30598;BME280;17365;48.878;8.334;2023-08-24T12:22:49;99620.16;;;32.54;47.05
30598;BME280;17365;48.878;8.334;2023-08-24T12:25:14;99608.88;;;33.14;45.98
30598;BME280;17365;48.878;8.334;2023-08-24T12:27:41;99602.13;;;32.64;47.79
30598;BME280;17365;48.878;8.334;2023-08-24T12:30:07;99593.19;;;32.73;48.84
30598;BME280;17365;48.878;8.334;2023-08-24T12:32:45;99587.38;;;33.32;47.84
30598;BME280;17365;48.878;8.334;2023-08-24T12:35:11;99581.63;;;33.44;47.40
30598;BME280;17365;48.878;8.334;2023-08-24T12:37:38;99595.75;;;33.11;48.49
30598;BME280;17365;48.878;8.334;2023-08-24T12:40:04;99587.78;;;33.19;48.53
30598;BME280;17365;48.878;8.334;2023-08-24T12:42:32;99592.41;;;33.52;46.96
30598;BME280;17365;48.878;8.334;2023-08-24T12:44:58;99597.34;;;33.39;47.00
30598;BME280;17365;48.878;8.334;2023-08-24T12:47:23;99593.66;;;33.40;47.39
30598;BME280;17365;48.878;8.334;2023-08-24T12:49:48;99586.09;;;33.62;47.26
30598;BME280;17365;48.878;8.334;2023-08-24T12:52:15;99592.78;;;32.96;47.84
30598;BME280;17365;48.878;8.334;2023-08-24T12:54:41;99590.53;;;33.09;48.21
30598;BME280;17365;48.878;8.334;2023-08-24T12:57:07;99592.38;;;33.09;48.21